sensor_id;sensor_type;location;lat;lon;timestamp;P1;durP1;ratioP1;P2;durP2;ratioP2
24567;SDS011;12731;52.182;8.716;2023-07-24T00:00:48;6.35;;;4.45;;
24567;SDS011;12731;52.182;8.716;2023-07-24T00:03:15;4.85;;;4.35;;
24567;SDS011;12731;52.182;8.716;2023-07-24T00:05:41;5.07;;;4.35;;
24567;SDS011;12731;52.182;8.716;2023-07-24T00:08:08;5.72;;;4.32;;
24567;SDS011;12731;52.182;8.716;2023-07-24T00:10:34;5.47;;;4.68;;
24567;SDS011;12731;52.182;8.716;2023-07-24T00:13:01;5.80;;;4.72;;
24567;SDS011;12731;52.182;8.716;2023-07-24T00:15:29;6.78;;;4.60;;
24567;SDS011;12731;52.182;8.716;2023-07-24T00:17:55;5.40;;;4.85;;
24567;SDS011;12731;52.182;8.716;2023-07-24T00:20:22;6.07;;;5.15;;
24567;SDS011;12731;52.182;8.716;2023-07-24T00:22:50;6.88;;;5.20;;
24567;SDS011;12731;52.182;8.716;2023-07-24T00:25:17;5.75;;;5.15;;
24567;SDS011;12731;52.182;8.716;2023-07-24T00:27:43;6.05;;;5.55;;
24567;SDS011;12731;52.182;8.716;2023-07-24T00:30:10;6.43;;;5.53;;
24567;SDS011;12731;52.182;8.716;2023-07-24T00:32:37;7.15;;;6.07;;
24567;SDS011;12731;52.182;8.716;2023-07-24T00:35:04;7.60;;;6.82;;
24567;SDS011;12731;52.182;8.716;2023-07-24T00:37:30;7.40;;;6.43;;
24567;SDS011;12731;52.182;8.716;2023-07-24T00:39:57;7.25;;;6.00;;
24567;SDS011;12731;52.182;8.716;2023-07-24T00:42:23;6.68;;;6.07;;
24567;SDS011;12731;52.182;8.716;2023-07-24T00:44:50;8.18;;;6.28;;
24567;SDS011;12731;52.182;8.716;2023-07-24T00:47:17;7.53;;;6.82;;
24567;SDS011;12731;52.182;8.716;2023-07-24T00:49:43;7.60;;;6.80;;
24567;SDS011;12731;52.182;8.716;2023-07-24T00:52:10;7.88;;;7.07;;
24567;SDS011;12731;52.182;8.716;2023-07-24T00:54:37;7.78;;;7.00;;
24567;SDS011;12731;52.182;8.716;2023-07-24T00:57:04;8.48;;;7.60;;
24567;SDS011;12731;52.182;8.716;2023-07-24T00:59:31;8.00;;;7.25;;
24567;SDS011;12731;52.182;8.716;2023-07-24T01:01:58;8.80;;;8.00;;
24567;SDS011;12731;52.182;8.716;2023-07-24T01:04:25;8.13;;;7.22;;
24567;SDS011;12731;52.182;8.716;2023-07-24T01:06:51;7.50;;;6.85;;
24567;SDS011;12731;52.182;8.716;2023-07-24T01:09:18;7.35;;;6.70;;
24567;SDS011;12731;52.182;8.716;2023-07-24T01:11:47;8.00;;;7.20;;
24567;SDS011;12731;52.182;8.716;2023-07-24T01:14:24;8.45;;;6.60;;
24567;SDS011;12731;52.182;8.716;2023-07-24T01:17:12;7.05;;;6.40;;
24567;SDS011;12731;52.182;8.716;2023-07-24T01:19:41;7.57;;;6.60;;
24567;SDS011;12731;52.182;8.716;2023-07-24T01:22:24;11.40;;;7.00;;
24567;SDS011;12731;52.182;8.716;2023-07-24T01:27:23;6.97;;;6.28;;
24567;SDS011;12731;52.182;8.716;2023-07-24T01:29:50;8.63;;;6.88;;
24567;SDS011;12731;52.182;8.716;2023-07-24T01:32:17;9.95;;;6.85;;
24567;SDS011;12731;52.182;8.716;2023-07-24T01:34:44;9.48;;;7.30;;
24567;SDS011;12731;52.182;8.716;2023-07-24T01:37:11;8.25;;;7.10;;
24567;SDS011;12731;52.182;8.716;2023-07-24T01:39:40;7.35;;;6.65;;
24567;SDS011;12731;52.182;8.716;2023-07-24T01:42:07;6.93;;;6.20;;
24567;SDS011;12731;52.182;8.716;2023-07-24T01:44:34;7.40;;;6.70;;
24567;SDS011;12731;52.182;8.716;2023-07-24T01:47:03;8.85;;;6.40;;
24567;SDS011;12731;52.182;8.716;2023-07-24T01:49:29;6.07;;;5.47;;
24567;SDS011;12731;52.182;8.716;2023-07-24T01:51:57;6.50;;;5.28;;
24567;SDS011;12731;52.182;8.716;2023-07-24T01:54:24;7.20;;;5.72;;
24567;SDS011;12731;52.182;8.716;2023-07-24T01:56:50;6.65;;;4.88;;
24567;SDS011;12731;52.182;8.716;2023-07-24T01:59:17;5.47;;;4.88;;
24567;SDS011;12731;52.182;8.716;2023-07-24T02:01:44;5.63;;;4.78;;
24567;SDS011;12731;52.182;8.716;2023-07-24T02:04:10;7.65;;;4.82;;
24567;SDS011;12731;52.182;8.716;2023-07-24T02:06:37;5.53;;;4.63;;
24567;SDS011;12731;52.182;8.716;2023-07-24T02:09:03;6.15;;;5.00;;
24567;SDS011;12731;52.182;8.716;2023-07-24T02:11:30;7.72;;;4.65;;
24567;SDS011;12731;52.182;8.716;2023-07-24T02:13:56;7.00;;;4.30;;
24567;SDS011;12731;52.182;8.716;2023-07-24T02:16:23;5.15;;;4.00;;
24567;SDS011;12731;52.182;8.716;2023-07-24T02:18:49;4.35;;;3.85;;
24567;SDS011;12731;52.182;8.716;2023-07-24T02:21:16;6.28;;;4.10;;
24567;SDS011;12731;52.182;8.716;2023-07-24T02:23:42;8.30;;;4.10;;
24567;SDS011;12731;52.182;8.716;2023-07-24T02:26:09;5.28;;;4.28;;
24567;SDS011;12731;52.182;8.716;2023-07-24T02:28:35;6.45;;;4.22;;
24567;SDS011;12731;52.182;8.716;2023-07-24T02:31:02;7.70;;;3.63;;
24567;SDS011;12731;52.182;8.716;2023-07-24T02:33:28;7.00;;;4.00;;
24567;SDS011;12731;52.182;8.716;2023-07-24T02:35:55;4.93;;;4.13;;
24567;SDS011;12731;52.182;8.716;2023-07-24T02:38:21;7.85;;;3.90;;
24567;SDS011;12731;52.182;8.716;2023-07-24T02:40:48;5.72;;;4.10;;
24567;SDS011;12731;52.182;8.716;2023-07-24T02:43:15;4.88;;;4.15;;
24567;SDS011;12731;52.182;8.716;2023-07-24T02:45:41;6.88;;;3.90;;
24567;SDS011;12731;52.182;8.716;2023-07-24T02:48:08;6.53;;;4.45;;
24567;SDS011;12731;52.182;8.716;2023-07-24T02:50:34;4.38;;;3.78;;
24567;SDS011;12731;52.182;8.716;2023-07-24T02:53:01;6.28;;;4.10;;
24567;SDS011;12731;52.182;8.716;2023-07-24T02:55:27;4.13;;;3.70;;
24567;SDS011;12731;52.182;8.716;2023-07-24T02:57:54;7.95;;;4.00;;
24567;SDS011;12731;52.182;8.716;2023-07-24T03:00:20;6.43;;;3.88;;
24567;SDS011;12731;52.182;8.716;2023-07-24T03:02:47;4.43;;;3.70;;
24567;SDS011;12731;52.182;8.716;2023-07-24T03:05:13;7.45;;;4.07;;
24567;SDS011;12731;52.182;8.716;2023-07-24T03:07:40;7.70;;;4.10;;
24567;SDS011;12731;52.182;8.716;2023-07-24T03:10:06;5.55;;;3.92;;
24567;SDS011;12731;52.182;8.716;2023-07-24T03:12:34;7.70;;;4.00;;
24567;SDS011;12731;52.182;8.716;2023-07-24T03:15:00;8.23;;;4.45;;
24567;SDS011;12731;52.182;8.716;2023-07-24T03:17:27;5.38;;;3.75;;
24567;SDS011;12731;52.182;8.716;2023-07-24T03:19:54;6.25;;;3.95;;
24567;SDS011;12731;52.182;8.716;2023-07-24T03:22:20;5.72;;;3.97;;
24567;SDS011;12731;52.182;8.716;2023-07-24T03:24:46;5.10;;;3.72;;
24567;SDS011;12731;52.182;8.716;2023-07-24T03:27:13;6.28;;;4.18;;
24567;SDS011;12731;52.182;8.716;2023-07-24T03:29:40;6.72;;;4.10;;
24567;SDS011;12731;52.182;8.716;2023-07-24T03:32:07;7.95;;;4.32;;
24567;SDS011;12731;52.182;8.716;2023-07-24T03:34:33;7.30;;;4.07;;
24567;SDS011;12731;52.182;8.716;2023-07-24T03:37:00;7.68;;;4.40;;
24567;SDS011;12731;52.182;8.716;2023-07-24T03:39:26;7.20;;;4.15;;
24567;SDS011;12731;52.182;8.716;2023-07-24T03:41:53;6.05;;;3.97;;
24567;SDS011;12731;52.182;8.716;2023-07-24T03:44:19;6.43;;;4.00;;
24567;SDS011;12731;52.182;8.716;2023-07-24T03:46:46;6.03;;;3.83;;
24567;SDS011;12731;52.182;8.716;2023-07-24T03:49:12;7.38;;;4.00;;
24567;SDS011;12731;52.182;8.716;2023-07-24T03:51:39;4.30;;;3.90;;
24567;SDS011;12731;52.182;8.716;2023-07-24T03:54:05;6.93;;;3.92;;
24567;SDS011;12731;52.182;8.716;2023-07-24T03:56:32;4.97;;;3.95;;
24567;SDS011;12731;52.182;8.716;2023-07-24T03:58:58;6.05;;;3.90;;
24567;SDS011;12731;52.182;8.716;2023-07-24T04:01:24;6.07;;;3.85;;
24567;SDS011;12731;52.182;8.716;2023-07-24T04:03:51;6.07;;;4.28;;
24567;SDS011;12731;52.182;8.716;2023-07-24T04:06:18;6.90;;;3.55;;
24567;SDS011;12731;52.182;8.716;2023-07-24T04:08:45;5.40;;;3.80;;
24567;SDS011;12731;52.182;8.716;2023-07-24T04:11:11;5.20;;;3.72;;
24567;SDS011;12731;52.182;8.716;2023-07-24T04:13:38;5.72;;;3.47;;
24567;SDS011;12731;52.182;8.716;2023-07-24T04:16:04;6.95;;;3.90;;
24567;SDS011;12731;52.182;8.716;2023-07-24T04:18:31;7.38;;;3.67;;
24567;SDS011;12731;52.182;8.716;2023-07-24T04:20:57;6.47;;;3.40;;
24567;SDS011;12731;52.182;8.716;2023-07-24T04:23:26;5.50;;;3.65;;
24567;SDS011;12731;52.182;8.716;2023-07-24T04:25:52;4.32;;;3.40;;
24567;SDS011;12731;52.182;8.716;2023-07-24T04:28:19;6.07;;;3.60;;
24567;SDS011;12731;52.182;8.716;2023-07-24T04:30:45;4.28;;;3.60;;
24567;SDS011;12731;52.182;8.716;2023-07-24T04:33:11;6.18;;;3.67;;
24567;SDS011;12731;52.182;8.716;2023-07-24T04:35:38;4.80;;;3.10;;
24567;SDS011;12731;52.182;8.716;2023-07-24T04:38:04;5.43;;;3.15;;
24567;SDS011;12731;52.182;8.716;2023-07-24T04:40:31;5.80;;;3.20;;
24567;SDS011;12731;52.182;8.716;2023-07-24T04:42:57;5.28;;;3.83;;
24567;SDS011;12731;52.182;8.716;2023-07-24T04:45:24;7.60;;;3.58;;
24567;SDS011;12731;52.182;8.716;2023-07-24T04:47:50;4.35;;;3.60;;
24567;SDS011;12731;52.182;8.716;2023-07-24T04:50:17;5.97;;;3.40;;
24567;SDS011;12731;52.182;8.716;2023-07-24T04:52:43;4.45;;;3.50;;
24567;SDS011;12731;52.182;8.716;2023-07-24T04:55:10;4.05;;;3.30;;
24567;SDS011;12731;52.182;8.716;2023-07-24T04:57:36;3.90;;;3.45;;
24567;SDS011;12731;52.182;8.716;2023-07-24T05:00:03;6.55;;;3.55;;
24567;SDS011;12731;52.182;8.716;2023-07-24T05:02:30;5.78;;;3.55;;
24567;SDS011;12731;52.182;8.716;2023-07-24T05:04:57;5.70;;;3.28;;
24567;SDS011;12731;52.182;8.716;2023-07-24T05:07:23;4.65;;;3.25;;
24567;SDS011;12731;52.182;8.716;2023-07-24T05:09:50;9.55;;;3.33;;
24567;SDS011;12731;52.182;8.716;2023-07-24T05:12:16;6.45;;;4.05;;
24567;SDS011;12731;52.182;8.716;2023-07-24T05:14:43;5.45;;;3.70;;
24567;SDS011;12731;52.182;8.716;2023-07-24T05:17:09;4.85;;;3.28;;
24567;SDS011;12731;52.182;8.716;2023-07-24T05:19:36;7.32;;;3.60;;
24567;SDS011;12731;52.182;8.716;2023-07-24T05:22:02;5.95;;;3.63;;
24567;SDS011;12731;52.182;8.716;2023-07-24T05:24:29;6.18;;;3.97;;
24567;SDS011;12731;52.182;8.716;2023-07-24T05:26:55;5.35;;;3.65;;
24567;SDS011;12731;52.182;8.716;2023-07-24T05:29:22;7.40;;;3.83;;
24567;SDS011;12731;52.182;8.716;2023-07-24T05:31:48;5.78;;;3.80;;
24567;SDS011;12731;52.182;8.716;2023-07-24T05:34:15;7.25;;;4.28;;
24567;SDS011;12731;52.182;8.716;2023-07-24T05:36:41;12.90;;;4.95;;
24567;SDS011;12731;52.182;8.716;2023-07-24T05:39:08;7.28;;;4.90;;
24567;SDS011;12731;52.182;8.716;2023-07-24T05:41:34;9.60;;;5.63;;
24567;SDS011;12731;52.182;8.716;2023-07-24T05:44:04;9.18;;;5.13;;
24567;SDS011;12731;52.182;8.716;2023-07-24T05:46:30;8.30;;;5.00;;
24567;SDS011;12731;52.182;8.716;2023-07-24T05:48:57;7.95;;;4.80;;
24567;SDS011;12731;52.182;8.716;2023-07-24T05:51:26;6.45;;;4.43;;
24567;SDS011;12731;52.182;8.716;2023-07-24T05:53:52;8.82;;;4.38;;
24567;SDS011;12731;52.182;8.716;2023-07-24T05:56:19;7.10;;;4.75;;
24567;SDS011;12731;52.182;8.716;2023-07-24T05:58:45;11.02;;;5.32;;
24567;SDS011;12731;52.182;8.716;2023-07-24T06:01:12;8.00;;;5.10;;
24567;SDS011;12731;52.182;8.716;2023-07-24T06:03:38;9.50;;;5.20;;
24567;SDS011;12731;52.182;8.716;2023-07-24T06:06:05;12.70;;;5.57;;
24567;SDS011;12731;52.182;8.716;2023-07-24T06:08:31;9.57;;;5.50;;
24567;SDS011;12731;52.182;8.716;2023-07-24T06:10:58;9.43;;;6.13;;
24567;SDS011;12731;52.182;8.716;2023-07-24T06:13:24;8.38;;;5.72;;
24567;SDS011;12731;52.182;8.716;2023-07-24T06:15:51;7.60;;;5.45;;
24567;SDS011;12731;52.182;8.716;2023-07-24T06:18:18;9.95;;;5.80;;
24567;SDS011;12731;52.182;8.716;2023-07-24T06:20:44;9.95;;;6.13;;
24567;SDS011;12731;52.182;8.716;2023-07-24T06:23:11;8.75;;;5.95;;
24567;SDS011;12731;52.182;8.716;2023-07-24T06:25:37;7.90;;;5.85;;
24567;SDS011;12731;52.182;8.716;2023-07-24T06:28:04;10.10;;;5.97;;
24567;SDS011;12731;52.182;8.716;2023-07-24T06:30:30;10.20;;;6.28;;
24567;SDS011;12731;52.182;8.716;2023-07-24T06:32:57;8.00;;;5.97;;
24567;SDS011;12731;52.182;8.716;2023-07-24T06:35:23;8.40;;;5.65;;
24567;SDS011;12731;52.182;8.716;2023-07-24T06:37:50;7.47;;;5.80;;
24567;SDS011;12731;52.182;8.716;2023-07-24T06:40:16;7.07;;;5.38;;
24567;SDS011;12731;52.182;8.716;2023-07-24T06:42:43;7.63;;;5.70;;
24567;SDS011;12731;52.182;8.716;2023-07-24T06:45:09;9.52;;;5.95;;
24567;SDS011;12731;52.182;8.716;2023-07-24T06:47:36;8.18;;;6.07;;
24567;SDS011;12731;52.182;8.716;2023-07-24T06:50:02;6.80;;;5.75;;
24567;SDS011;12731;52.182;8.716;2023-07-24T06:52:31;7.43;;;5.65;;
24567;SDS011;12731;52.182;8.716;2023-07-24T06:54:58;7.55;;;6.45;;
24567;SDS011;12731;52.182;8.716;2023-07-24T06:57:25;8.15;;;6.30;;
24567;SDS011;12731;52.182;8.716;2023-07-24T06:59:51;7.00;;;5.68;;
24567;SDS011;12731;52.182;8.716;2023-07-24T07:02:20;8.25;;;5.97;;
24567;SDS011;12731;52.182;8.716;2023-07-24T07:04:47;6.57;;;5.72;;
24567;SDS011;12731;52.182;8.716;2023-07-24T07:07:13;7.82;;;6.38;;
24567;SDS011;12731;52.182;8.716;2023-07-24T07:09:39;9.68;;;6.28;;
24567;SDS011;12731;52.182;8.716;2023-07-24T07:12:06;6.78;;;6.07;;
24567;SDS011;12731;52.182;8.716;2023-07-24T07:14:33;7.55;;;6.18;;
24567;SDS011;12731;52.182;8.716;2023-07-24T07:16:59;8.52;;;6.20;;
24567;SDS011;12731;52.182;8.716;2023-07-24T07:19:26;7.80;;;6.40;;
24567;SDS011;12731;52.182;8.716;2023-07-24T07:21:53;7.85;;;6.30;;
24567;SDS011;12731;52.182;8.716;2023-07-24T07:24:19;6.88;;;5.95;;
24567;SDS011;12731;52.182;8.716;2023-07-24T07:26:46;9.20;;;6.47;;
24567;SDS011;12731;52.182;8.716;2023-07-24T07:29:12;8.27;;;6.40;;
24567;SDS011;12731;52.182;8.716;2023-07-24T07:31:39;7.88;;;6.68;;
24567;SDS011;12731;52.182;8.716;2023-07-24T07:34:05;7.38;;;6.63;;
24567;SDS011;12731;52.182;8.716;2023-07-24T07:36:32;7.70;;;6.68;;
24567;SDS011;12731;52.182;8.716;2023-07-24T07:38:58;7.68;;;6.82;;
24567;SDS011;12731;52.182;8.716;2023-07-24T07:41:25;8.40;;;7.03;;
24567;SDS011;12731;52.182;8.716;2023-07-24T07:43:51;8.40;;;6.85;;
24567;SDS011;12731;52.182;8.716;2023-07-24T07:46:18;8.77;;;7.57;;
24567;SDS011;12731;52.182;8.716;2023-07-24T07:48:44;8.43;;;6.63;;
24567;SDS011;12731;52.182;8.716;2023-07-24T07:51:12;7.82;;;6.60;;
24567;SDS011;12731;52.182;8.716;2023-07-24T07:53:39;9.70;;;7.57;;
24567;SDS011;12731;52.182;8.716;2023-07-24T07:56:06;9.10;;;8.27;;
24567;SDS011;12731;52.182;8.716;2023-07-24T07:58:33;8.98;;;7.72;;
24567;SDS011;12731;52.182;8.716;2023-07-24T08:01:03;9.07;;;8.23;;
24567;SDS011;12731;52.182;8.716;2023-07-24T08:03:30;9.68;;;8.60;;
24567;SDS011;12731;52.182;8.716;2023-07-24T08:05:57;8.88;;;8.05;;
24567;SDS011;12731;52.182;8.716;2023-07-24T08:08:24;8.10;;;7.30;;
24567;SDS011;12731;52.182;8.716;2023-07-24T08:10:50;9.00;;;7.38;;
24567;SDS011;12731;52.182;8.716;2023-07-24T08:13:17;8.40;;;7.60;;
24567;SDS011;12731;52.182;8.716;2023-07-24T08:15:43;8.05;;;7.35;;
24567;SDS011;12731;52.182;8.716;2023-07-24T08:18:10;8.70;;;7.90;;
24567;SDS011;12731;52.182;8.716;2023-07-24T08:20:37;8.82;;;7.93;;
24567;SDS011;12731;52.182;8.716;2023-07-24T08:23:04;9.07;;;8.18;;
24567;SDS011;12731;52.182;8.716;2023-07-24T08:25:31;9.23;;;8.32;;
24567;SDS011;12731;52.182;8.716;2023-07-24T08:27:57;9.07;;;8.18;;
24567;SDS011;12731;52.182;8.716;2023-07-24T08:30:27;8.95;;;7.95;;
24567;SDS011;12731;52.182;8.716;2023-07-24T08:32:54;9.25;;;7.47;;
24567;SDS011;12731;52.182;8.716;2023-07-24T08:35:21;7.20;;;6.55;;
24567;SDS011;12731;52.182;8.716;2023-07-24T08:37:47;7.13;;;6.20;;
24567;SDS011;12731;52.182;8.716;2023-07-24T08:40:14;6.13;;;5.40;;
24567;SDS011;12731;52.182;8.716;2023-07-24T08:42:42;6.85;;;5.65;;
24567;SDS011;12731;52.182;8.716;2023-07-24T08:45:12;6.88;;;6.18;;
24567;SDS011;12731;52.182;8.716;2023-07-24T08:47:42;6.50;;;5.55;;
24567;SDS011;12731;52.182;8.716;2023-07-24T08:50:13;5.85;;;5.35;;
24567;SDS011;12731;52.182;8.716;2023-07-24T08:52:41;6.88;;;5.82;;
24567;SDS011;12731;52.182;8.716;2023-07-24T08:55:13;6.15;;;5.35;;
24567;SDS011;12731;52.182;8.716;2023-07-24T08:57:39;8.38;;;6.10;;
24567;SDS011;12731;52.182;8.716;2023-07-24T09:00:06;7.82;;;6.00;;
24567;SDS011;12731;52.182;8.716;2023-07-24T09:02:33;6.97;;;5.82;;
24567;SDS011;12731;52.182;8.716;2023-07-24T09:05:00;7.88;;;6.32;;
24567;SDS011;12731;52.182;8.716;2023-07-24T09:07:28;6.85;;;6.15;;
24567;SDS011;12731;52.182;8.716;2023-07-24T09:09:56;8.65;;;6.35;;
24567;SDS011;12731;52.182;8.716;2023-07-24T09:12:22;9.48;;;6.60;;
24567;SDS011;12731;52.182;8.716;2023-07-24T09:14:59;8.85;;;6.50;;
24567;SDS011;12731;52.182;8.716;2023-07-24T09:17:33;8.38;;;6.03;;
24567;SDS011;12731;52.182;8.716;2023-07-24T09:20:00;7.13;;;5.97;;
24567;SDS011;12731;52.182;8.716;2023-07-24T09:22:28;8.05;;;6.13;;
24567;SDS011;12731;52.182;8.716;2023-07-24T09:24:55;7.90;;;6.43;;
24567;SDS011;12731;52.182;8.716;2023-07-24T09:27:26;6.30;;;5.65;;
24567;SDS011;12731;52.182;8.716;2023-07-24T09:29:55;8.52;;;6.18;;
24567;SDS011;12731;52.182;8.716;2023-07-24T09:32:22;6.95;;;6.25;;
24567;SDS011;12731;52.182;8.716;2023-07-24T09:34:50;7.32;;;6.63;;
24567;SDS011;12731;52.182;8.716;2023-07-24T09:37:24;7.93;;;6.57;;
24567;SDS011;12731;52.182;8.716;2023-07-24T09:39:53;8.50;;;6.45;;
24567;SDS011;12731;52.182;8.716;2023-07-24T09:42:33;6.47;;;5.80;;
24567;SDS011;12731;52.182;8.716;2023-07-24T09:45:10;6.85;;;6.15;;
24567;SDS011;12731;52.182;8.716;2023-07-24T09:47:36;7.03;;;6.32;;
24567;SDS011;12731;52.182;8.716;2023-07-24T09:50:08;7.35;;;6.50;;
24567;SDS011;12731;52.182;8.716;2023-07-24T09:52:35;8.73;;;5.90;;
24567;SDS011;12731;52.182;8.716;2023-07-24T09:55:15;7.78;;;6.63;;
24567;SDS011;12731;52.182;8.716;2023-07-24T09:57:45;7.38;;;6.50;;
24567;SDS011;12731;52.182;8.716;2023-07-24T10:00:13;7.85;;;7.05;;
24567;SDS011;12731;52.182;8.716;2023-07-24T10:02:39;7.03;;;6.32;;
24567;SDS011;12731;52.182;8.716;2023-07-24T10:05:06;6.55;;;5.90;;
24567;SDS011;12731;52.182;8.716;2023-07-24T10:07:33;6.97;;;5.50;;
24567;SDS011;12731;52.182;8.716;2023-07-24T10:10:00;4.65;;;4.22;;
24567;SDS011;12731;52.182;8.716;2023-07-24T10:12:27;6.15;;;4.45;;
24567;SDS011;12731;52.182;8.716;2023-07-24T10:14:54;4.93;;;4.45;;
24567;SDS011;12731;52.182;8.716;2023-07-24T10:17:34;5.03;;;4.35;;
24567;SDS011;12731;52.182;8.716;2023-07-24T10:20:04;4.72;;;4.32;;
24567;SDS011;12731;52.182;8.716;2023-07-24T10:22:35;4.17;;;3.87;;
24567;SDS011;12731;52.182;8.716;2023-07-24T10:25:04;2.97;;;2.75;;
24567;SDS011;12731;52.182;8.716;2023-07-24T10:27:31;2.30;;;2.10;;
24567;SDS011;12731;52.182;8.716;2023-07-24T10:30:02;3.17;;;2.22;;
24567;SDS011;12731;52.182;8.716;2023-07-24T10:32:48;2.60;;;2.40;;
24567;SDS011;12731;52.182;8.716;2023-07-24T10:35:20;2.65;;;2.45;;
24567;SDS011;12731;52.182;8.716;2023-07-24T10:37:58;2.25;;;2.05;;
24567;SDS011;12731;52.182;8.716;2023-07-24T10:40:25;5.35;;;2.55;;
24567;SDS011;12731;52.182;8.716;2023-07-24T10:42:58;2.38;;;2.17;;
24567;SDS011;12731;52.182;8.716;2023-07-24T10:45:41;2.33;;;2.10;;
24567;SDS011;12731;52.182;8.716;2023-07-24T10:48:18;2.38;;;2.17;;
24567;SDS011;12731;52.182;8.716;2023-07-24T10:50:47;2.47;;;1.80;;
24567;SDS011;12731;52.182;8.716;2023-07-24T10:53:20;1.80;;;1.70;;
24567;SDS011;12731;52.182;8.716;2023-07-24T10:55:47;1.88;;;1.50;;
24567;SDS011;12731;52.182;8.716;2023-07-24T10:58:14;3.85;;;1.83;;
24567;SDS011;12731;52.182;8.716;2023-07-24T11:00:41;1.60;;;1.45;;
24567;SDS011;12731;52.182;8.716;2023-07-24T11:03:09;1.58;;;1.48;;
24567;SDS011;12731;52.182;8.716;2023-07-24T11:05:40;2.67;;;1.40;;
24567;SDS011;12731;52.182;8.716;2023-07-24T11:08:14;1.70;;;1.60;;
24567;SDS011;12731;52.182;8.716;2023-07-24T11:10:54;1.50;;;1.40;;
24567;SDS011;12731;52.182;8.716;2023-07-24T11:13:23;2.15;;;1.80;;
24567;SDS011;12731;52.182;8.716;2023-07-24T11:15:51;1.88;;;1.48;;
24567;SDS011;12731;52.182;8.716;2023-07-24T11:18:19;4.10;;;1.77;;
24567;SDS011;12731;52.182;8.716;2023-07-24T11:21:09;1.65;;;1.50;;
24567;SDS011;12731;52.182;8.716;2023-07-24T11:23:44;1.42;;;1.30;;
24567;SDS011;12731;52.182;8.716;2023-07-24T11:26:11;1.85;;;1.40;;
24567;SDS011;12731;52.182;8.716;2023-07-24T11:28:40;3.10;;;1.60;;
24567;SDS011;12731;52.182;8.716;2023-07-24T11:31:07;2.72;;;1.63;;
24567;SDS011;12731;52.182;8.716;2023-07-24T11:33:33;2.33;;;1.50;;
24567;SDS011;12731;52.182;8.716;2023-07-24T11:36:00;1.73;;;1.50;;
24567;SDS011;12731;52.182;8.716;2023-07-24T11:38:27;1.70;;;1.35;;
24567;SDS011;12731;52.182;8.716;2023-07-24T11:40:53;1.77;;;1.40;;
24567;SDS011;12731;52.182;8.716;2023-07-24T11:43:21;1.77;;;1.67;;
24567;SDS011;12731;52.182;8.716;2023-07-24T11:45:49;2.00;;;1.75;;
24567;SDS011;12731;52.182;8.716;2023-07-24T11:48:20;3.28;;;1.90;;
24567;SDS011;12731;52.182;8.716;2023-07-24T11:50:48;1.88;;;1.77;;
24567;SDS011;12731;52.182;8.716;2023-07-24T11:53:19;1.95;;;1.85;;
24567;SDS011;12731;52.182;8.716;2023-07-24T11:55:54;2.60;;;1.95;;
24567;SDS011;12731;52.182;8.716;2023-07-24T11:58:22;1.95;;;1.85;;
24567;SDS011;12731;52.182;8.716;2023-07-24T12:00:52;2.85;;;2.25;;
24567;SDS011;12731;52.182;8.716;2023-07-24T12:03:19;2.10;;;1.90;;
24567;SDS011;12731;52.182;8.716;2023-07-24T12:05:48;2.97;;;2.65;;
24567;SDS011;12731;52.182;8.716;2023-07-24T12:08:16;3.17;;;2.85;;
24567;SDS011;12731;52.182;8.716;2023-07-24T12:10:44;4.32;;;3.00;;
24567;SDS011;12731;52.182;8.716;2023-07-24T12:13:11;3.45;;;3.15;;
24567;SDS011;12731;52.182;8.716;2023-07-24T12:15:38;3.47;;;3.17;;
24567;SDS011;12731;52.182;8.716;2023-07-24T12:18:06;3.97;;;3.65;;
24567;SDS011;12731;52.182;8.716;2023-07-24T12:20:33;3.95;;;3.65;;
24567;SDS011;12731;52.182;8.716;2023-07-24T12:23:00;3.80;;;3.50;;
24567;SDS011;12731;52.182;8.716;2023-07-24T12:25:27;3.65;;;3.35;;
24567;SDS011;12731;52.182;8.716;2023-07-24T12:27:54;3.40;;;3.10;;
24567;SDS011;12731;52.182;8.716;2023-07-24T12:30:21;3.20;;;2.90;;
24567;SDS011;12731;52.182;8.716;2023-07-24T12:32:47;2.60;;;2.40;;
24567;SDS011;12731;52.182;8.716;2023-07-24T12:35:14;3.10;;;2.42;;
24567;SDS011;12731;52.182;8.716;2023-07-24T12:37:43;3.88;;;3.10;;
24567;SDS011;12731;52.182;8.716;2023-07-24T12:40:10;3.20;;;2.88;;
24567;SDS011;12731;52.182;8.716;2023-07-24T12:42:40;2.92;;;2.72;;
24567;SDS011;12731;52.182;8.716;2023-07-24T12:45:09;3.63;;;3.33;;
24567;SDS011;12731;52.182;8.716;2023-07-24T12:47:36;4.53;;;3.88;;
24567;SDS011;12731;52.182;8.716;2023-07-24T12:50:03;5.18;;;3.70;;
24567;SDS011;12731;52.182;8.716;2023-07-24T12:52:33;3.78;;;3.47;;
24567;SDS011;12731;52.182;8.716;2023-07-24T12:55:04;4.47;;;4.10;;
24567;SDS011;12731;52.182;8.716;2023-07-24T12:57:31;4.68;;;4.20;;
24567;SDS011;12731;52.182;8.716;2023-07-24T12:59:59;4.75;;;4.35;;
24567;SDS011;12731;52.182;8.716;2023-07-24T13:02:35;5.82;;;4.82;;
24567;SDS011;12731;52.182;8.716;2023-07-24T13:05:02;5.05;;;4.65;;
24567;SDS011;12731;52.182;8.716;2023-07-24T13:07:30;5.57;;;5.07;;
24567;SDS011;12731;52.182;8.716;2023-07-24T13:09:58;5.55;;;5.03;;
24567;SDS011;12731;52.182;8.716;2023-07-24T13:12:35;6.38;;;5.78;;
24567;SDS011;12731;52.182;8.716;2023-07-24T13:15:02;6.30;;;5.78;;
24567;SDS011;12731;52.182;8.716;2023-07-24T13:17:29;5.20;;;4.80;;
24567;SDS011;12731;52.182;8.716;2023-07-24T13:19:56;5.32;;;4.85;;
24567;SDS011;12731;52.182;8.716;2023-07-24T13:22:29;6.22;;;4.45;;
24567;SDS011;12731;52.182;8.716;2023-07-24T13:24:55;4.97;;;4.57;;
24567;SDS011;12731;52.182;8.716;2023-07-24T13:27:22;5.00;;;4.60;;
24567;SDS011;12731;52.182;8.716;2023-07-24T13:29:48;5.53;;;5.00;;
24567;SDS011;12731;52.182;8.716;2023-07-24T13:32:14;5.60;;;4.95;;
24567;SDS011;12731;52.182;8.716;2023-07-24T13:34:42;6.25;;;5.75;;
24567;SDS011;12731;52.182;8.716;2023-07-24T13:37:08;6.05;;;5.45;;
24567;SDS011;12731;52.182;8.716;2023-07-24T13:39:35;6.80;;;6.05;;
24567;SDS011;12731;52.182;8.716;2023-07-24T13:42:02;7.10;;;6.47;;
24567;SDS011;12731;52.182;8.716;2023-07-24T13:44:29;7.20;;;6.60;;
24567;SDS011;12731;52.182;8.716;2023-07-24T13:46:55;7.07;;;6.47;;
24567;SDS011;12731;52.182;8.716;2023-07-24T13:49:22;7.13;;;6.28;;
24567;SDS011;12731;52.182;8.716;2023-07-24T13:51:48;6.97;;;6.30;;
24567;SDS011;12731;52.182;8.716;2023-07-24T13:54:15;6.18;;;5.50;;
24567;SDS011;12731;52.182;8.716;2023-07-24T13:56:42;6.65;;;5.97;;
24567;SDS011;12731;52.182;8.716;2023-07-24T13:59:08;6.47;;;5.88;;
24567;SDS011;12731;52.182;8.716;2023-07-24T14:01:35;5.65;;;5.15;;
24567;SDS011;12731;52.182;8.716;2023-07-24T14:04:02;5.65;;;5.15;;
24567;SDS011;12731;52.182;8.716;2023-07-24T14:06:28;6.88;;;5.30;;
24567;SDS011;12731;52.182;8.716;2023-07-24T14:08:55;5.82;;;4.85;;
24567;SDS011;12731;52.182;8.716;2023-07-24T14:11:22;6.30;;;4.70;;
24567;SDS011;12731;52.182;8.716;2023-07-24T14:13:48;4.18;;;3.80;;
24567;SDS011;12731;52.182;8.716;2023-07-24T14:16:15;4.15;;;3.60;;
24567;SDS011;12731;52.182;8.716;2023-07-24T14:18:41;3.85;;;3.40;;
24567;SDS011;12731;52.182;8.716;2023-07-24T14:21:07;4.53;;;3.25;;
24567;SDS011;12731;52.182;8.716;2023-07-24T14:23:34;4.05;;;3.25;;
24567;SDS011;12731;52.182;8.716;2023-07-24T14:26:00;3.70;;;3.40;;
24567;SDS011;12731;52.182;8.716;2023-07-24T14:28:27;3.92;;;3.10;;
24567;SDS011;12731;52.182;8.716;2023-07-24T14:30:53;3.42;;;3.13;;
24567;SDS011;12731;52.182;8.716;2023-07-24T14:33:20;3.70;;;2.88;;
24567;SDS011;12731;52.182;8.716;2023-07-24T14:35:48;3.40;;;3.10;;
24567;SDS011;12731;52.182;8.716;2023-07-24T14:38:15;3.22;;;2.92;;
24567;SDS011;12731;52.182;8.716;2023-07-24T14:40:41;4.03;;;2.65;;
24567;SDS011;12731;52.182;8.716;2023-07-24T14:43:07;2.78;;;2.42;;
24567;SDS011;12731;52.182;8.716;2023-07-24T14:45:34;3.17;;;2.25;;
24567;SDS011;12731;52.182;8.716;2023-07-24T14:48:00;2.35;;;2.10;;
24567;SDS011;12731;52.182;8.716;2023-07-24T14:50:27;2.20;;;2.00;;
24567;SDS011;12731;52.182;8.716;2023-07-24T14:52:54;2.50;;;2.10;;